Time;durP1;ratioP1;P1;durP2;ratioP2;P2;SDS_P1;SDS_P2;PMS_P1;PMS_P2;Temp;Humidity;BMP_temperature;BMP_pressure;BME280_temperature;BME280_humidity;BME280_pressure;Samples;Min_cycle;Max_cycle;Signal;HPM_P1;HPM_P2
2020/12/13 00:02:20;;;;;;;63.70;28.30;;;8.00;94.20;;;;;;5056566;28;20459;-87
2020/12/13 00:04:45;;;;;;;59.23;26.93;;;8.10;94.20;;;;;;5074151;28;20019;-85
2020/12/13 00:07:11;;;;;;;57.93;26.30;;;7.90;94.10;;;;;;5072747;28;20179;-86
2020/12/13 00:09:37;;;;;;;67.90;28.10;;;8.00;94.10;;;;;;5074160;28;20038;-86
2020/12/13 00:12:03;;;;;;;65.67;30.50;;;7.90;94.10;;;;;;5072737;28;20556;-87
2020/12/13 00:14:30;;;;;;;61.47;27.17;;;8.00;94.40;;;;;;5072806;28;20032;-83
2020/12/13 00:16:55;;;;;;;65.70;26.33;;;8.00;94.10;;;;;;5073901;28;20036;-88
2020/12/13 00:19:21;;;;;;;60.90;25.97;;;7.90;94.10;;;;;;5056119;28;20051;-77
2020/12/13 00:21:52;;;;;;;66.43;28.07;;;7.90;94.10;;;;;;5055851;28;20037;-77
2020/12/13 00:24:18;;;;;;;61.07;25.00;;;7.80;94.10;;;;;;5055967;28;20036;-77
2020/12/13 00:26:44;;;;;;;62.60;26.60;;;7.80;94.40;;;;;;5072404;28;20029;-76
2020/12/13 00:29:10;;;;;;;64.90;25.97;;;7.90;94.10;;;;;;5072641;28;20037;-76
2020/12/13 00:31:36;;;;;;;71.43;26.87;;;7.80;94.10;;;;;;5055694;28;20040;-77
2020/12/13 00:34:02;;;;;;;66.43;24.97;;;7.80;94.10;;;;;;5055630;28;20039;-76
2020/12/13 00:36:27;;;;;;;80.07;25.67;;;7.80;94.10;;;;;;5072356;28;20052;-77
2020/12/13 00:38:53;;;;;;;69.40;22.73;;;7.70;94.10;;;;;;5072334;28;20117;-77
2020/12/13 00:41:18;;;;;;;78.73;24.20;;;7.80;94.10;;;;;;5039087;28;20029;-77
2020/12/13 00:43:44;;;;;;;68.23;24.23;;;7.80;94.10;;;;;;5055591;28;20395;-77
2020/12/13 00:46:09;;;;;;;65.83;23.13;;;7.80;94.10;;;;;;5072120;28;20037;-77
2020/12/13 00:48:35;;;;;;;57.10;23.03;;;7.80;94.20;;;;;;5038814;28;20082;-77
2020/12/13 00:51:01;;;;;;;56.47;23.50;;;7.80;94.10;;;;;;5055874;28;20032;-77
2020/12/13 00:53:26;;;;;;;57.40;22.60;;;7.70;94.10;;;;;;5054791;28;20107;-77
2020/12/13 00:55:52;;;;;;;58.03;23.67;;;7.80;94.20;;;;;;5071789;28;20040;-77
2020/12/13 00:58:18;;;;;;;59.17;21.83;;;7.80;94.20;;;;;;5038845;28;20064;-77
2020/12/13 01:00:43;;;;;;;57.77;22.90;;;7.80;94.20;;;;;;5072059;28;20024;-77
2020/12/13 01:03:09;;;;;;;53.20;22.33;;;7.80;94.50;;;;;;5055704;28;20082;-77
2020/12/13 01:05:34;;;;;;;53.07;22.13;;;7.80;94.30;;;;;;5071917;28;20495;-77
2020/12/13 01:08:00;;;;;;;53.03;22.33;;;7.90;94.30;;;;;;5073155;28;20039;-77
2020/12/13 01:10:26;;;;;;;54.70;21.53;;;7.80;94.30;;;;;;5073197;28;20059;-77
2020/12/13 01:12:52;;;;;;;54.77;21.57;;;7.90;94.30;;;;;;5071859;28;20090;-77
2020/12/13 01:15:18;;;;;;;60.57;22.20;;;7.90;94.20;;;;;;5071799;28;20118;-77
2020/12/13 01:17:49;;;;;;;55.47;22.90;;;7.90;94.20;;;;;;5055230;28;20163;-77
2020/12/13 01:20:15;;;;;;;71.03;21.73;;;7.80;94.10;;;;;;5055259;28;20028;-77
2020/12/13 01:22:40;;;;;;;50.00;20.77;;;7.80;94.20;;;;;;5054949;28;20028;-77
2020/12/13 01:25:08;;;;;;;66.87;22.20;;;7.80;94.20;;;;;;5071740;28;20028;-77
2020/12/13 01:27:34;;;;;;;66.57;21.57;;;7.80;94.20;;;;;;5055051;28;20119;-77
2020/12/13 01:30:00;;;;;;;71.70;23.33;;;7.80;94.20;;;;;;5071758;28;20060;-77
2020/12/13 01:32:25;;;;;;;59.47;21.87;;;7.80;94.30;;;;;;5071667;28;21892;-77
2020/12/13 01:34:51;;;;;;;51.03;20.47;;;7.80;94.30;;;;;;5055400;28;20025;-77
2020/12/13 01:37:17;;;;;;;51.40;19.80;;;7.80;94.30;;;;;;5038405;28;20086;-77
2020/12/13 01:39:42;;;;;;;63.67;20.63;;;7.80;94.20;;;;;;5071781;28;20025;-77
2020/12/13 01:42:08;;;;;;;49.50;20.70;;;7.90;94.30;;;;;;5054895;28;20029;-77
2020/12/13 01:44:36;;;;;;;55.40;20.77;;;7.80;94.20;;;;;;5054942;28;20358;-77
2020/12/13 01:47:04;;;;;;;53.93;19.90;;;7.80;94.30;;;;;;5054983;28;20086;-78
2020/12/13 01:49:37;;;;;;;46.17;20.10;;;7.90;94.30;;;;;;5055103;28;20449;-77
2020/12/13 01:52:39;;;;;;;50.07;21.17;;;7.80;94.30;;;;;;5040269;28;20082;-77
2020/12/13 01:55:01;;;;;;;58.33;19.67;;;7.90;94.30;;;;;;5072680;28;20032;-77
2020/12/13 01:57:33;;;;;;;50.03;20.53;;;7.90;94.30;;;;;;5071279;28;20045;-77
2020/12/13 02:00:04;;;;;;;66.87;19.97;;;7.90;94.30;;;;;;5071406;28;20035;-77
2020/12/13 02:02:33;;;;;;;52.77;22.47;;;7.80;94.30;;;;;;5071473;28;20020;-78
2020/12/13 02:05:00;;;;;;;48.73;20.00;;;7.90;94.30;;;;;;5074380;28;20112;-77
2020/12/13 02:07:29;;;;;;;45.37;19.83;;;7.90;94.30;;;;;;5058350;28;20487;-77
2020/12/13 02:09:54;;;;;;;52.50;21.60;;;7.90;94.30;;;;;;5075031;28;20024;-77
2020/12/13 02:12:20;;;;;;;49.93;20.63;;;7.90;94.30;;;;;;5041618;28;20162;-77
2020/12/13 02:14:45;;;;;;;47.97;21.10;;;7.90;94.30;;;;;;5042019;28;20017;-77
2020/12/13 02:17:11;;;;;;;40.70;19.63;;;7.90;94.30;;;;;;5041585;28;20021;-77
2020/12/13 02:19:37;;;;;;;43.47;20.70;;;8.00;94.30;;;;;;5058142;28;20497;-77
2020/12/13 02:22:10;;;;;;;43.70;19.40;;;8.00;94.30;;;;;;5058283;28;20063;-78
2020/12/13 02:24:35;;;;;;;46.43;20.83;;;8.00;94.30;;;;;;5074799;28;20024;-77
2020/12/13 02:27:06;;;;;;;48.90;20.57;;;7.90;94.20;;;;;;5075927;28;20027;-78
2020/12/13 02:29:32;;;;;;;45.43;19.53;;;8.00;94.20;;;;;;5074640;28;20020;-78
2020/12/13 02:31:58;;;;;;;44.37;19.70;;;8.10;94.20;;;;;;5074757;28;20030;-77
2020/12/13 02:34:24;;;;;;;43.67;20.13;;;8.10;94.20;;;;;;5074545;28;20033;-77
2020/12/13 02:36:49;;;;;;;46.87;19.17;;;8.00;94.20;;;;;;5057761;28;20028;-78
2020/12/13 02:39:15;;;;;;;50.50;20.30;;;8.10;94.20;;;;;;5041120;28;20074;-78
2020/12/13 02:41:41;;;;;;;48.43;20.53;;;8.10;94.20;;;;;;5057671;28;20028;-78
2020/12/13 02:44:06;;;;;;;61.33;20.77;;;8.10;94.20;;;;;;5041178;28;20036;-77
2020/12/13 02:46:32;;;;;;;67.63;21.60;;;8.10;94.20;;;;;;5057808;28;20487;-77
2020/12/13 02:48:57;;;;;;;65.37;21.47;;;8.10;94.10;;;;;;5074386;28;20036;-77
2020/12/13 02:51:23;;;;;;;72.67;22.57;;;8.00;94.10;;;;;;5041450;28;20106;-77
2020/12/13 02:53:49;;;;;;;88.17;22.40;;;8.10;94.10;;;;;;5040958;28;20430;-78
2020/12/13 02:56:14;;;;;;;80.97;20.97;;;8.10;94.00;;;;;;5040797;28;20048;-78
2020/12/13 02:58:40;;;;;;;62.20;21.00;;;8.10;94.00;;;;;;5074380;28;20028;-78
2020/12/13 03:01:08;;;;;;;69.20;22.17;;;8.10;94.00;;;;;;5057237;28;20116;-77
2020/12/13 03:03:33;;;;;;;74.37;22.50;;;8.10;94.00;;;;;;5074148;28;20032;-77
2020/12/13 03:05:59;;;;;;;63.80;21.37;;;8.10;94.10;;;;;;5040666;28;20055;-78
2020/12/13 03:08:24;;;;;;;53.07;19.80;;;8.20;94.10;;;;;;5040578;28;20020;-78
2020/12/13 03:10:50;;;;;;;61.40;20.43;;;8.10;94.10;;;;;;5057230;28;20028;-78
2020/12/13 03:13:16;;;;;;;93.77;21.27;;;8.10;94.10;;;;;;5057145;28;20025;-78
2020/12/13 03:15:42;;;;;;;73.30;23.10;;;8.10;94.10;;;;;;5056583;28;20495;-77
2020/12/13 03:18:07;;;;;;;65.40;21.97;;;8.10;94.10;;;;;;5057440;28;20471;-78
2020/12/13 03:20:33;;;;;;;71.93;22.10;;;8.10;94.10;;;;;;5057215;28;20472;-78
2020/12/13 03:22:59;;;;;;;69.13;22.17;;;8.10;94.10;;;;;;5057323;28;20365;-78
2020/12/13 03:25:24;;;;;;;97.27;21.80;;;8.10;94.10;;;;;;5040377;28;20032;-78
2020/12/13 03:27:50;;;;;;;67.50;23.10;;;8.20;94.10;;;;;;5040541;28;20052;-78
2020/12/13 03:30:15;;;;;;;87.07;22.90;;;8.20;94.10;;;;;;5056918;28;20036;-78
2020/12/13 03:32:41;;;;;;;62.73;23.87;;;8.20;94.10;;;;;;5040019;28;20051;-77
2020/12/13 03:35:07;;;;;;;82.33;22.87;;;8.20;94.10;;;;;;5056752;28;20027;-77
2020/12/13 03:37:32;;;;;;;71.70;21.57;;;8.20;94.10;;;;;;5074501;28;20107;-77
2020/12/13 03:39:58;;;;;;;58.87;20.60;;;8.30;94.10;;;;;;5073219;28;20107;-77
2020/12/13 03:42:24;;;;;;;61.13;21.07;;;8.20;94.10;;;;;;5056536;28;20017;-78
2020/12/13 03:44:49;;;;;;;60.50;23.10;;;8.20;94.10;;;;;;5073051;28;20052;-77
2020/12/13 03:47:15;;;;;;;55.53;21.57;;;8.30;94.10;;;;;;5056640;28;20035;-78
2020/12/13 03:49:41;;;;;;;65.63;22.97;;;8.30;94.10;;;;;;5056485;28;20432;-78
2020/12/13 03:52:06;;;;;;;75.27;23.43;;;8.30;94.10;;;;;;5073121;28;20024;-77
2020/12/13 03:54:32;;;;;;;64.70;21.27;;;8.30;94.10;;;;;;5072998;28;20021;-78
2020/12/13 03:56:57;;;;;;;73.20;22.80;;;8.20;94.00;;;;;;5056225;28;20048;-78
2020/12/13 03:59:23;;;;;;;79.50;23.13;;;8.30;94.00;;;;;;5072886;28;20020;-77
2020/12/13 04:01:49;;;;;;;75.30;21.97;;;8.30;94.30;;;;;;5056018;28;20078;-78
2020/12/13 04:04:14;;;;;;;64.90;22.70;;;8.30;94.00;;;;;;5072682;28;20403;-78
2020/12/13 04:06:40;;;;;;;61.60;21.43;;;8.40;94.00;;;;;;5072756;28;20028;-77
2020/12/13 04:09:05;;;;;;;76.93;21.03;;;8.30;94.00;;;;;;5039452;28;20035;-77
2020/12/13 04:11:31;;;;;;;63.37;21.37;;;8.30;93.90;;;;;;5073382;28;20063;-78
2020/12/13 04:13:57;;;;;;;52.30;19.57;;;8.40;94.00;;;;;;5039500;28;20028;-78
2020/12/13 04:16:23;;;;;;;56.97;21.23;;;8.30;94.00;;;;;;5072919;28;20467;-87
2020/12/13 04:18:48;;;;;;;70.77;23.37;;;8.30;94.00;;;;;;5056690;28;20021;-89
2020/12/13 04:21:14;;;;;;;60.03;22.87;;;8.30;93.90;;;;;;5073098;28;20024;-89
2020/12/13 04:23:39;;;;;;;66.57;22.00;;;8.30;93.90;;;;;;5039911;28;20082;-89
2020/12/13 04:26:05;;;;;;;66.80;23.07;;;8.30;93.90;;;;;;5073311;28;20108;-89
2020/12/13 04:28:31;;;;;;;60.40;22.23;;;8.30;94.00;;;;;;5055644;28;20033;-89
2020/12/13 04:30:56;;;;;;;67.07;23.80;;;8.30;94.00;;;;;;5056412;28;20035;-89
2020/12/13 04:33:22;;;;;;;60.03;23.40;;;8.30;93.90;;;;;;5073020;28;20040;-90
2020/12/13 04:35:48;;;;;;;68.20;22.87;;;8.30;93.90;;;;;;5039651;28;20048;-89
2020/12/13 04:38:13;;;;;;;58.03;21.50;;;8.30;93.90;;;;;;5056189;28;20020;-89
2020/12/13 04:40:39;;;;;;;57.43;22.27;;;8.30;94.00;;;;;;5073004;28;20017;-89
2020/12/13 04:43:06;;;;;;;48.73;20.27;;;8.40;94.00;;;;;;5056102;28;20434;-87
2020/12/13 04:45:32;;;;;;;50.40;20.23;;;8.40;94.00;;;;;;5073809;28;20025;-89
2020/12/13 04:48:03;;;;;;;39.67;17.77;;;8.30;94.00;;;;;;5072840;28;20039;-89
2020/12/13 04:50:31;;;;;;;38.57;18.17;;;8.20;93.90;;;;;;5073841;28;20104;-88
2020/12/13 04:52:57;;;;;;;44.53;19.10;;;8.40;94.00;;;;;;5072679;28;20028;-89
2020/12/13 04:55:23;;;;;;;36.43;17.57;;;8.40;94.00;;;;;;5073923;28;20454;-88
2020/12/13 04:57:48;;;;;;;43.00;18.93;;;8.40;94.00;;;;;;5072436;28;20045;-90
2020/12/13 05:00:17;;;;;;;49.37;20.17;;;8.40;93.90;;;;;;5055672;28;20099;-90
2020/12/13 05:02:42;;;;;;;51.80;22.33;;;8.40;93.90;;;;;;5070837;28;20033;-78
2020/12/13 05:05:10;;;;;;;53.93;22.33;;;8.40;93.90;;;;;;5071902;28;20039;-78
2020/12/13 05:07:36;;;;;;;54.13;21.63;;;8.40;94.00;;;;;;5072052;28;20065;-78
2020/12/13 05:10:03;;;;;;;47.30;21.63;;;8.40;94.00;;;;;;5071911;28;20056;-78
2020/12/13 05:12:29;;;;;;;46.90;22.33;;;8.40;94.00;;;;;;5038666;28;20551;-78
2020/12/13 05:14:54;;;;;;;48.80;23.00;;;8.40;94.00;;;;;;5054839;28;20115;-78
2020/12/13 05:17:20;;;;;;;50.73;24.27;;;8.60;94.10;;;;;;5055139;28;20013;-78
2020/12/13 05:19:49;;;;;;;51.73;24.60;;;8.60;94.10;;;;;;5072092;28;20031;-78
2020/12/13 05:22:22;;;;;;;53.50;25.13;;;8.50;94.10;;;;;;5072959;28;20017;-78
2020/12/13 05:24:51;;;;;;;54.13;23.63;;;8.50;94.20;;;;;;5071717;28;20067;-78
2020/12/13 05:27:23;;;;;;;44.23;22.83;;;8.50;94.20;;;;;;5038880;28;20020;-78
2020/12/13 05:29:52;;;;;;;47.27;21.57;;;8.50;94.20;;;;;;5055070;28;20032;-78
2020/12/13 05:32:23;;;;;;;49.17;23.10;;;8.40;94.10;;;;;;5071681;28;20036;-77
2020/12/13 05:34:50;;;;;;;49.53;24.03;;;8.60;94.20;;;;;;5072908;28;20024;-77
2020/12/13 05:37:18;;;;;;;51.20;21.70;;;8.50;94.20;;;;;;5071453;28;20016;-77
2020/12/13 05:39:48;;;;;;;43.87;22.67;;;8.60;94.20;;;;;;5074385;28;20035;-77
2020/12/13 05:42:28;;;;;;;44.03;22.03;;;8.60;94.30;;;;;;5075200;28;20471;-78
2020/12/13 05:52:48;;;;;;;45.20;21.93;;;8.60;94.30;;;;;;5056884;28;20396;-78
2020/12/13 05:55:14;;;;;;;43.73;24.63;;;8.60;94.30;;;;;;5038850;28;20041;-78
2020/12/13 05:57:40;;;;;;;44.37;25.03;;;8.60;94.30;;;;;;5038555;28;20584;-78
2020/12/13 06:00:08;;;;;;;46.93;23.27;;;8.70;94.40;;;;;;5055115;28;20027;-78
2020/12/13 06:02:36;;;;;;;37.53;19.90;;;8.70;94.40;;;;;;5038614;28;20476;-77
2020/12/13 06:05:04;;;;;;;39.73;21.67;;;8.70;94.40;;;;;;5055083;28;20383;-77
2020/12/13 06:07:34;;;;;;;50.47;23.70;;;8.80;94.40;;;;;;5055135;28;20427;-78
2020/12/13 06:10:06;;;;;;;41.93;21.00;;;8.70;94.40;;;;;;5056325;28;20024;-77
2020/12/13 06:12:32;;;;;;;44.30;24.30;;;8.70;94.40;;;;;;5054775;28;20028;-77
2020/12/13 06:15:00;;;;;;;44.33;21.90;;;8.80;94.40;;;;;;5038342;28;20053;-78
2020/12/13 06:17:27;;;;;;;38.93;20.80;;;8.70;94.40;;;;;;5055148;28;20060;-78
2020/12/13 06:19:53;;;;;;;45.70;22.67;;;8.80;94.40;;;;;;5056080;28;20431;-78
2020/12/13 06:22:21;;;;;;;38.53;21.30;;;8.80;94.50;;;;;;5038299;28;20029;-78
2020/12/13 06:24:48;;;;;;;38.33;21.27;;;8.70;94.40;;;;;;5054849;28;20017;-78
2020/12/13 06:27:14;;;;;;;39.23;21.10;;;8.90;94.50;;;;;;5054715;28;20582;-77
2020/12/13 06:29:42;;;;;;;44.03;23.10;;;8.80;94.50;;;;;;5066800;28;20032;-79
2020/12/13 06:32:09;;;;;;;41.87;21.93;;;8.80;94.40;;;;;;5057887;28;20397;-78
2020/12/13 06:34:35;;;;;;;42.50;22.60;;;8.70;94.50;;;;;;5074574;28;20032;-77
2020/12/13 06:37:03;;;;;;;39.30;22.10;;;8.80;94.50;;;;;;5057725;28;20376;-79
2020/12/13 06:39:30;;;;;;;40.47;21.13;;;8.70;94.70;;;;;;5075825;28;20020;-77
2020/12/13 06:42:02;;;;;;;42.80;22.40;;;8.70;94.50;;;;;;5057920;28;20052;-78
2020/12/13 06:44:29;;;;;;;43.80;23.20;;;8.70;94.50;;;;;;5057592;28;20480;-78
2020/12/13 06:46:54;;;;;;;44.90;22.57;;;8.80;94.60;;;;;;5057634;28;20020;-77
2020/12/13 06:49:20;;;;;;;41.60;21.33;;;8.60;94.60;;;;;;5074267;28;20081;-79
2020/12/13 06:51:47;;;;;;;44.37;23.33;;;8.70;94.60;;;;;;5073350;28;20108;-79
2020/12/13 06:54:18;;;;;;;43.20;22.30;;;8.70;94.60;;;;;;5074082;28;20423;-78
2020/12/13 06:56:45;;;;;;;42.40;23.23;;;8.70;94.60;;;;;;5057544;28;20040;-78
2020/12/13 06:59:11;;;;;;;40.53;20.50;;;8.70;94.60;;;;;;5057587;28;20024;-78
2020/12/13 07:01:39;;;;;;;41.23;21.40;;;8.80;94.60;;;;;;5057455;28;20162;-77
2020/12/13 07:04:23;;;;;;;40.67;21.93;;;8.60;94.60;;;;;;5073959;28;20031;-78
2020/12/13 07:06:56;;;;;;;44.42;21.98;;;8.70;94.60;;;;;;5073877;28;20064;-78
2020/12/13 07:09:23;;;;;;;44.67;21.65;;;8.70;94.60;;;;;;5058156;28;20119;-78
2020/12/13 07:11:50;;;;;;;38.63;20.63;;;8.70;94.60;;;;;;5057197;28;20388;-78
2020/12/13 07:14:17;;;;;;;41.73;20.40;;;8.80;94.60;;;;;;5073793;28;20028;-78
2020/12/13 07:16:48;;;;;;;44.23;21.33;;;8.70;94.60;;;;;;5073732;28;20031;-77
2020/12/13 07:19:16;;;;;;;40.10;20.83;;;8.70;94.50;;;;;;5057845;28;20021;-77
2020/12/13 07:21:43;;;;;;;39.00;20.47;;;8.70;94.50;;;;;;5073629;28;20429;-78
2020/12/13 07:24:09;;;;;;;45.87;22.13;;;8.80;94.60;;;;;;5073427;28;20085;-78
2020/12/13 07:26:37;;;;;;;40.47;21.40;;;8.80;94.60;;;;;;5073467;28;20380;-78
2020/12/13 07:29:05;;;;;;;40.30;21.33;;;8.80;94.60;;;;;;5056737;28;20032;-77
2020/12/13 07:31:36;;;;;;;40.67;21.37;;;8.90;94.60;;;;;;5075087;28;20027;-78
2020/12/13 07:34:03;;;;;;;45.37;21.90;;;8.80;94.60;;;;;;5074461;28;20020;-78
2020/12/13 07:36:29;;;;;;;38.50;21.57;;;8.80;94.60;;;;;;5074647;28;20495;-78
2020/12/13 07:38:55;;;;;;;38.57;20.67;;;8.80;94.60;;;;;;5073337;28;20035;-77
2020/12/13 07:41:22;;;;;;;41.67;23.43;;;8.80;94.60;;;;;;5056597;28;20052;-78
2020/12/13 07:44:05;;;;;;;40.80;22.20;;;8.80;94.60;;;;;;5074496;28;20059;-78
2020/12/13 07:46:32;;;;;;;41.23;22.70;;;8.80;94.60;;;;;;5073089;28;20024;-79
2020/12/13 07:49:07;;;;;;;39.33;21.97;;;8.80;94.60;;;;;;5072869;28;20107;-77
2020/12/13 07:51:35;;;;;;;39.13;22.60;;;8.80;94.60;;;;;;5072979;28;20029;-78
2020/12/13 07:54:10;;;;;;;36.77;22.83;;;8.80;94.60;;;;;;5073019;28;20415;-80
2020/12/13 07:56:36;;;;;;;34.03;21.77;;;8.80;94.60;;;;;;5073007;28;20049;-78
2020/12/13 07:59:08;;;;;;;35.53;20.77;;;8.80;94.50;;;;;;5036024;28;20024;-79
2020/12/13 08:01:33;;;;;;;38.97;23.43;;;8.80;94.50;;;;;;5054025;28;20024;-78
2020/12/13 08:03:59;;;;;;;36.37;20.83;;;8.80;94.80;;;;;;5036398;28;20029;-78
2020/12/13 08:06:25;;;;;;;35.67;20.73;;;8.90;94.50;;;;;;5036230;28;20365;-78
2020/12/13 08:08:50;;;;;;;38.90;21.43;;;8.80;94.40;;;;;;5019731;28;20028;-78
2020/12/13 08:11:16;;;;;;;37.40;22.57;;;8.90;94.50;;;;;;5052968;28;20438;-79
2020/12/13 08:13:54;;;;;;;39.33;22.20;;;8.80;94.50;;;;;;5035706;28;20480;-79
2020/12/13 08:16:23;;;;;;;34.70;21.63;;;8.80;94.50;;;;;;5062453;28;20472;-77
2020/12/13 08:18:51;;;;;;;39.13;20.47;;;8.70;94.50;;;;;;5060823;28;20434;-78
2020/12/13 08:21:37;;;;;;;32.73;20.00;;;8.80;94.50;;;;;;5059031;28;20013;-78
2020/12/13 08:24:04;;;;;;;38.40;21.30;;;8.80;94.40;;;;;;5063083;28;20025;-78
2020/12/13 08:26:31;;;;;;;32.27;20.73;;;8.90;94.50;;;;;;5041928;28;20033;-78
2020/12/13 08:29:00;;;;;;;34.40;20.03;;;8.90;94.40;;;;;;5035795;28;20021;-78
2020/12/13 08:31:28;;;;;;;34.37;21.00;;;8.80;94.40;;;;;;5062476;28;20073;-78
2020/12/13 08:34:05;;;;;;;33.40;19.57;;;8.90;94.40;;;;;;5067445;28;20029;-78
2020/12/13 08:36:32;;;;;;;31.80;19.10;;;8.80;94.30;;;;;;5058292;28;20031;-79
2020/12/13 08:39:07;;;;;;;32.03;18.73;;;8.80;94.30;;;;;;5070938;28;20046;-80
2020/12/13 08:41:33;;;;;;;31.63;19.03;;;8.90;94.30;;;;;;5056080;28;20025;-79
2020/12/13 08:43:59;;;;;;;28.37;18.13;;;8.90;94.30;;;;;;5070137;28;20028;-79
2020/12/13 08:46:41;;;;;;;27.60;17.23;;;8.80;94.20;;;;;;5072508;28;20024;-78
2020/12/13 08:49:07;;;;;;;27.00;16.10;;;8.90;94.20;;;;;;5063155;28;20469;-79
2020/12/13 08:51:32;;;;;;;27.60;17.23;;;8.80;94.20;;;;;;5042332;28;20029;-78
2020/12/13 08:54:04;;;;;;;27.07;16.13;;;8.90;94.20;;;;;;5043746;28;20036;-78
2020/12/13 08:56:31;;;;;;;28.60;18.10;;;8.80;94.10;;;;;;5034830;28;20562;-78
2020/12/13 08:59:00;;;;;;;24.17;15.20;;;8.90;94.10;;;;;;5042970;28;20020;-78
2020/12/13 09:01:40;;;;;;;26.50;15.23;;;8.80;94.10;;;;;;5052313;28;20058;-77
2020/12/13 09:04:19;;;;;;;26.57;15.50;;;8.80;94.10;;;;;;5063072;28;20033;-77
2020/12/13 09:06:59;;;;;;;29.23;16.33;;;8.80;94.10;;;;;;5042829;28;20039;-77
2020/12/13 09:09:33;;;;;;;27.10;16.23;;;8.90;94.00;;;;;;5063340;28;20025;-77
2020/12/13 09:11:59;;;;;;;28.10;17.08;;;8.80;94.00;;;;;;5051605;28;20151;-78
2020/12/13 09:14:25;;;;;;;32.47;17.43;;;8.80;94.00;;;;;;5067685;28;20073;-77
2020/12/13 09:16:51;;;;;;;28.33;17.27;;;8.80;94.00;;;;;;5049987;28;20025;-77
2020/12/13 09:19:17;;;;;;;32.60;18.27;;;8.80;94.10;;;;;;5063679;28;20461;-77
2020/12/13 09:21:52;;;;;;;35.97;19.80;;;8.80;94.10;;;;;;5053483;28;20017;-76
2020/12/13 09:24:20;;;;;;;33.77;18.97;;;8.70;94.10;;;;;;5075034;28;20116;-76
2020/12/13 09:27:05;;;;;;;29.07;17.17;;;8.80;94.10;;;;;;5073714;28;20357;-77
2020/12/13 09:29:32;;;;;;;31.13;18.00;;;8.80;94.10;;;;;;5068556;28;20388;-78
2020/12/13 09:31:58;;;;;;;33.83;20.07;;;8.80;94.10;;;;;;5060767;28;20417;-78
2020/12/13 09:34:24;;;;;;;36.53;19.67;;;8.90;94.00;;;;;;5066760;28;20037;-78
2020/12/13 09:36:50;;;;;;;30.07;18.67;;;8.80;94.00;;;;;;5068737;28;20112;-78
2020/12/13 09:39:16;;;;;;;29.23;17.60;;;8.80;94.00;;;;;;5046658;28;20028;-78
2020/12/13 09:41:43;;;;;;;38.57;18.53;;;8.80;94.00;;;;;;5066002;28;20020;-78
2020/12/13 09:44:08;;;;;;;31.30;18.47;;;8.90;94.10;;;;;;5047401;28;20423;-79
2020/12/13 09:46:34;;;;;;;29.57;17.50;;;9.00;94.10;;;;;;5046227;28;20032;-78
2020/12/13 09:49:00;;;;;;;32.10;18.33;;;8.90;94.00;;;;;;5064211;28;20033;-78
2020/12/13 09:51:25;;;;;;;31.70;18.23;;;8.90;93.90;;;;;;5066804;28;20036;-81
2020/12/13 09:53:51;;;;;;;34.33;19.87;;;9.00;93.90;;;;;;5053386;28;20423;-78
2020/12/13 09:56:18;;;;;;;34.13;20.03;;;9.00;93.80;;;;;;5047024;28;20133;-77
2020/12/13 09:58:45;;;;;;;37.70;21.17;;;9.00;93.80;;;;;;5038207;28;20119;-78
2020/12/13 10:01:13;;;;;;;40.37;21.83;;;9.10;93.70;;;;;;5065769;28;20032;-79
2020/12/13 10:03:41;;;;;;;37.17;22.00;;;9.10;93.70;;;;;;5063619;28;20040;-79
2020/12/13 10:11:30;;;;;;;39.83;25.10;;;9.00;93.50;;;;;;5059582;28;20568;-78
2020/12/13 10:13:57;;;;;;;42.93;25.70;;;9.00;93.30;;;;;;5062255;28;20468;-80
2020/12/13 10:16:23;;;;;;;40.07;24.40;;;9.00;93.40;;;;;;5070279;28;20058;-76
2020/12/13 10:18:49;;;;;;;46.00;26.43;;;9.00;93.30;;;;;;5064626;28;20028;-76
2020/12/13 10:21:28;;;;;;;44.23;26.13;;;9.00;93.20;;;;;;5062532;28;20120;-76
2020/12/13 10:23:54;;;;;;;43.90;25.40;;;9.00;93.20;;;;;;5069080;28;20021;-76
2020/12/13 10:26:25;;;;;;;40.17;24.63;;;9.10;93.10;;;;;;5063922;28;20025;-76
2020/12/13 10:28:51;;;;;;;44.03;27.63;;;9.10;93.10;;;;;;5065728;28;20044;-77
2020/12/13 10:31:17;;;;;;;38.20;24.73;;;9.10;93.00;;;;;;5055580;28;20052;-76
2020/12/13 10:33:43;;;;;;;41.77;25.07;;;9.10;93.10;;;;;;5062467;28;20082;-77
2020/12/13 10:36:14;;;;;;;40.63;24.33;;;9.10;92.90;;;;;;5069782;28;20021;-77
2020/12/13 10:38:40;;;;;;;42.17;25.03;;;9.10;92.80;;;;;;5054557;28;20036;-76
2020/12/13 10:41:08;;;;;;;47.43;26.63;;;9.30;92.80;;;;;;5067145;28;20468;-77
2020/12/13 10:43:34;;;;;;;42.10;25.77;;;9.10;92.60;;;;;;5067296;28;20476;-77
2020/12/13 10:46:05;;;;;;;43.67;25.70;;;9.30;92.60;;;;;;5057707;28;20091;-77
2020/12/13 10:48:31;;;;;;;39.07;24.10;;;9.30;92.50;;;;;;5058666;28;20033;-76
2020/12/13 10:50:57;;;;;;;33.97;22.47;;;9.30;92.40;;;;;;5075415;28;20063;-77
2020/12/13 10:53:23;;;;;;;38.77;21.90;;;9.30;92.30;;;;;;5076891;28;20075;-76
2020/12/13 10:55:49;;;;;;;33.27;19.73;;;9.40;92.10;;;;;;5074135;28;20032;-77
2020/12/13 10:58:14;;;;;;;30.67;19.20;;;9.30;92.00;;;;;;5073635;28;20045;-76
2020/12/13 11:00:40;;;;;;;33.03;17.97;;;9.30;91.70;;;;;;5074073;28;20029;-77
2020/12/13 11:03:05;;;;;;;27.83;17.47;;;9.30;91.50;;;;;;5075189;28;20043;-75
2020/12/13 11:05:31;;;;;;;25.80;17.03;;;9.40;91.70;;;;;;5073573;28;20036;-76
2020/12/13 11:07:56;;;;;;;25.87;16.30;;;9.40;91.60;;;;;;5069186;28;20521;-76
2020/12/13 11:10:22;;;;;;;28.90;17.60;;;9.50;91.70;;;;;;5063383;28;20443;-75
2020/12/13 11:12:48;;;;;;;29.50;17.40;;;9.60;91.50;;;;;;5070767;28;20135;-76
2020/12/13 11:15:13;;;;;;;29.17;16.67;;;9.60;91.50;;;;;;5040259;28;20020;-76
2020/12/13 11:17:39;;;;;;;27.13;15.40;;;9.50;91.10;;;;;;5071872;28;20082;-76
2020/12/13 11:20:05;;;;;;;25.03;14.27;;;9.70;91.20;;;;;;5074921;28;20021;-76
2020/12/13 11:22:31;;;;;;;28.17;16.63;;;9.80;90.90;;;;;;5056505;28;20468;-76
2020/12/13 11:24:57;;;;;;;24.10;14.77;;;9.60;91.00;;;;;;5068545;28;20469;-77
2020/12/13 11:27:22;;;;;;;22.50;12.90;;;9.70;90.90;;;;;;5065531;28;20062;-76
2020/12/13 11:29:48;;;;;;;24.93;13.30;;;9.70;90.90;;;;;;5074664;28;20029;-76
2020/12/13 11:32:13;;;;;;;21.00;12.20;;;9.70;91.00;;;;;;5066869;28;20021;-76
2020/12/13 11:34:39;;;;;;;20.60;10.60;;;9.80;90.90;;;;;;5060118;28;20040;-77
2020/12/13 11:37:05;;;;;;;16.10;9.50;;;9.90;90.50;;;;;;5050800;28;20032;-76
2020/12/13 11:39:31;;;;;;;13.00;7.83;;;10.00;90.60;;;;;;5059517;28;20107;-75
2020/12/13 11:42:00;;;;;;;14.90;8.27;;;10.00;90.20;;;;;;5063744;28;20037;-75
2020/12/13 11:44:27;;;;;;;20.60;8.77;;;10.10;90.30;;;;;;5063652;28;20481;-74
2020/12/13 11:46:53;;;;;;;16.60;7.67;;;10.20;90.30;;;;;;5056091;28;20091;-75
2020/12/13 11:49:19;;;;;;;15.63;8.80;;;10.30;90.20;;;;;;5063466;28;20043;-76
2020/12/13 11:51:45;;;;;;;16.33;6.80;;;10.30;90.00;;;;;;5062538;28;20480;-76
2020/12/13 11:54:11;;;;;;;13.30;6.60;;;10.30;90.20;;;;;;5066828;28;20037;-86
2020/12/13 11:56:37;;;;;;;15.60;6.97;;;10.40;89.70;;;;;;5072874;28;20032;-87
2020/12/13 11:59:03;;;;;;;14.10;6.53;;;10.40;89.30;;;;;;5051678;28;20506;-87
2020/12/13 12:01:29;;;;;;;12.67;5.80;;;10.40;88.10;;;;;;5036190;28;20021;-84
2020/12/13 12:03:55;;;;;;;14.00;5.93;;;10.40;87.70;;;;;;5036298;28;20061;-86
2020/12/13 12:06:20;;;;;;;11.30;4.53;;;10.50;87.70;;;;;;5055735;28;20028;-83
2020/12/13 12:08:46;;;;;;;13.03;5.47;;;10.60;86.90;;;;;;5063650;28;20031;-83
2020/12/13 12:11:19;;;;;;;14.27;4.70;;;10.70;86.70;;;;;;5066393;28;20033;-84
2020/12/13 12:13:46;;;;;;;12.80;4.55;;;10.80;86.50;;;;;;5059999;28;20060;-83
2020/12/13 12:16:12;;;;;;;13.60;5.03;;;10.80;86.20;;;;;;5059693;28;20033;-83
2020/12/13 12:18:37;;;;;;;13.90;3.77;;;10.90;85.80;;;;;;5052802;28;20029;-82
2020/12/13 12:21:06;;;;;;;15.70;4.97;;;10.80;85.40;;;;;;5053706;28;20028;-83
2020/12/13 12:23:31;;;;;;;11.18;3.35;;;10.70;85.30;;;;;;5052411;28;20017;-83
2020/12/13 12:25:57;;;;;;;10.37;4.00;;;10.90;85.70;;;;;;5035921;28;20033;-83
2020/12/13 12:28:23;;;;;;;10.93;3.55;;;10.90;85.90;;;;;;5052655;28;20029;-81
2020/12/13 12:30:48;;;;;;;9.38;3.42;;;11.20;86.10;;;;;;5052365;28;20055;-82
2020/12/13 12:33:14;;;;;;;8.73;3.15;;;11.50;86.30;;;;;;5052377;28;20029;-83
2020/12/13 12:35:42;;;;;;;8.77;2.95;;;11.80;86.40;;;;;;5035595;28;20116;-82
2020/12/13 12:38:08;;;;;;;8.20;3.30;;;12.00;85.10;;;;;;5020403;28;20044;-82
2020/12/13 12:40:34;;;;;;;9.07;3.15;;;12.30;84.90;;;;;;5052199;28;20489;-82
2020/12/13 12:42:59;;;;;;;10.52;3.53;;;12.60;84.20;;;;;;5035603;28;20036;-82
2020/12/13 12:45:25;;;;;;;13.43;3.58;;;12.70;83.10;;;;;;5053366;28;20545;-82
2020/12/13 12:47:50;;;;;;;12.25;3.13;;;12.80;82.40;;;;;;5034889;28;20029;-82
2020/12/13 12:50:17;;;;;;;10.60;3.13;;;12.90;80.80;;;;;;5052272;28;20057;-82
2020/12/13 12:52:42;;;;;;;9.98;3.03;;;13.00;79.30;;;;;;5035361;28;20127;-82